sensor_id;sensor_type;location;lat;lon;timestamp;P1;durP1;ratioP1;P2;durP2;ratioP2
39848;SDS011;25518;47.878;15.914;2022-08-16T00:01:08;7.47;;;5.05;;
39848;SDS011;25518;47.878;15.914;2022-08-16T00:03:34;6.07;;;4.47;;
39848;SDS011;25518;47.878;15.914;2022-08-16T00:06:00;7.47;;;4.30;;
39848;SDS011;25518;47.878;15.914;2022-08-16T00:08:27;6.17;;;4.03;;
39848;SDS011;25518;47.878;15.914;2022-08-16T00:10:53;7.43;;;4.63;;
39848;SDS011;25518;47.878;15.914;2022-08-16T00:13:19;6.47;;;4.10;;
39848;SDS011;25518;47.878;15.914;2022-08-16T00:15:46;6.85;;;4.20;;
39848;SDS011;25518;47.878;15.914;2022-08-16T00:18:14;5.85;;;4.22;;
39848;SDS011;25518;47.878;15.914;2022-08-16T00:20:41;6.22;;;3.88;;
39848;SDS011;25518;47.878;15.914;2022-08-16T00:23:08;6.67;;;4.07;;
39848;SDS011;25518;47.878;15.914;2022-08-16T00:25:35;7.10;;;4.10;;
39848;SDS011;25518;47.878;15.914;2022-08-16T00:28:02;5.82;;;3.95;;
39848;SDS011;25518;47.878;15.914;2022-08-16T00:30:28;6.70;;;4.80;;
39848;SDS011;25518;47.878;15.914;2022-08-16T00:32:56;6.25;;;4.07;;
39848;SDS011;25518;47.878;15.914;2022-08-16T00:35:24;6.50;;;4.38;;
39848;SDS011;25518;47.878;15.914;2022-08-16T00:37:50;5.45;;;4.20;;
39848;SDS011;25518;47.878;15.914;2022-08-16T00:40:23;5.68;;;3.75;;
39848;SDS011;25518;47.878;15.914;2022-08-16T00:42:49;4.47;;;3.42;;
39848;SDS011;25518;47.878;15.914;2022-08-16T00:47:46;5.13;;;4.03;;
39848;SDS011;25518;47.878;15.914;2022-08-16T00:50:12;6.13;;;3.83;;
39848;SDS011;25518;47.878;15.914;2022-08-16T00:52:39;5.13;;;3.60;;
39848;SDS011;25518;47.878;15.914;2022-08-16T00:55:06;4.70;;;3.38;;
39848;SDS011;25518;47.878;15.914;2022-08-16T00:57:33;6.60;;;3.50;;
39848;SDS011;25518;47.878;15.914;2022-08-16T01:00:00;4.97;;;3.60;;
39848;SDS011;25518;47.878;15.914;2022-08-16T01:02:27;5.10;;;3.70;;
39848;SDS011;25518;47.878;15.914;2022-08-16T01:04:53;5.88;;;3.65;;
39848;SDS011;25518;47.878;15.914;2022-08-16T01:07:20;6.10;;;4.03;;
39848;SDS011;25518;47.878;15.914;2022-08-16T01:09:46;5.07;;;3.78;;
39848;SDS011;25518;47.878;15.914;2022-08-16T01:12:12;5.55;;;3.80;;
39848;SDS011;25518;47.878;15.914;2022-08-16T01:14:43;5.00;;;3.45;;
39848;SDS011;25518;47.878;15.914;2022-08-16T01:17:11;4.93;;;3.75;;
39848;SDS011;25518;47.878;15.914;2022-08-16T01:19:41;5.50;;;3.88;;
39848;SDS011;25518;47.878;15.914;2022-08-16T01:22:12;5.22;;;3.78;;
39848;SDS011;25518;47.878;15.914;2022-08-16T01:24:41;5.43;;;3.72;;
39848;SDS011;25518;47.878;15.914;2022-08-16T01:27:10;6.75;;;4.03;;
39848;SDS011;25518;47.878;15.914;2022-08-16T01:29:39;5.82;;;3.70;;
39848;SDS011;25518;47.878;15.914;2022-08-16T01:32:06;4.68;;;3.47;;
39848;SDS011;25518;47.878;15.914;2022-08-16T01:34:33;4.95;;;3.00;;
39848;SDS011;25518;47.878;15.914;2022-08-16T01:37:00;5.05;;;2.78;;
39848;SDS011;25518;47.878;15.914;2022-08-16T01:39:28;4.53;;;2.78;;
39848;SDS011;25518;47.878;15.914;2022-08-16T01:41:54;4.10;;;2.45;;
39848;SDS011;25518;47.878;15.914;2022-08-16T01:44:22;3.80;;;2.10;;
39848;SDS011;25518;47.878;15.914;2022-08-16T01:46:48;4.78;;;2.08;;
39848;SDS011;25518;47.878;15.914;2022-08-16T01:49:19;3.45;;;2.10;;
39848;SDS011;25518;47.878;15.914;2022-08-16T01:51:47;4.80;;;2.30;;
39848;SDS011;25518;47.878;15.914;2022-08-16T01:54:15;3.95;;;2.35;;
39848;SDS011;25518;47.878;15.914;2022-08-16T01:56:41;5.73;;;2.30;;
39848;SDS011;25518;47.878;15.914;2022-08-16T01:59:08;4.10;;;2.17;;
39848;SDS011;25518;47.878;15.914;2022-08-16T02:01:35;4.00;;;2.28;;
39848;SDS011;25518;47.878;15.914;2022-08-16T02:04:02;3.60;;;2.38;;
39848;SDS011;25518;47.878;15.914;2022-08-16T02:06:28;3.75;;;2.40;;
39848;SDS011;25518;47.878;15.914;2022-08-16T02:08:55;4.15;;;2.40;;
39848;SDS011;25518;47.878;15.914;2022-08-16T02:11:22;4.07;;;2.37;;
39848;SDS011;25518;47.878;15.914;2022-08-16T02:13:50;4.35;;;2.30;;
39848;SDS011;25518;47.878;15.914;2022-08-16T02:16:16;3.65;;;2.22;;
39848;SDS011;25518;47.878;15.914;2022-08-16T02:18:43;3.28;;;2.10;;
39848;SDS011;25518;47.878;15.914;2022-08-16T02:21:09;5.68;;;2.10;;
39848;SDS011;25518;47.878;15.914;2022-08-16T02:23:36;3.40;;;2.00;;
39848;SDS011;25518;47.878;15.914;2022-08-16T02:26:03;6.47;;;2.03;;
39848;SDS011;25518;47.878;15.914;2022-08-16T02:28:30;3.03;;;1.97;;
39848;SDS011;25518;47.878;15.914;2022-08-16T02:30:58;3.13;;;1.77;;
39848;SDS011;25518;47.878;15.914;2022-08-16T02:33:25;3.97;;;1.90;;
39848;SDS011;25518;47.878;15.914;2022-08-16T02:35:52;3.10;;;1.77;;
39848;SDS011;25518;47.878;15.914;2022-08-16T02:38:18;3.20;;;1.80;;
39848;SDS011;25518;47.878;15.914;2022-08-16T02:40:44;3.58;;;1.67;;
39848;SDS011;25518;47.878;15.914;2022-08-16T02:43:10;3.78;;;2.08;;
39848;SDS011;25518;47.878;15.914;2022-08-16T02:45:37;4.50;;;2.10;;
39848;SDS011;25518;47.878;15.914;2022-08-16T02:48:03;4.20;;;2.22;;
39848;SDS011;25518;47.878;15.914;2022-08-16T02:50:30;3.67;;;2.20;;
39848;SDS011;25518;47.878;15.914;2022-08-16T02:52:56;4.50;;;2.00;;
39848;SDS011;25518;47.878;15.914;2022-08-16T02:55:22;4.88;;;2.08;;
39848;SDS011;25518;47.878;15.914;2022-08-16T02:57:49;4.37;;;2.57;;
39848;SDS011;25518;47.878;15.914;2022-08-16T03:17:18;3.72;;;1.95;;
39848;SDS011;25518;47.878;15.914;2022-08-16T03:19:44;3.30;;;2.00;;
39848;SDS011;25518;47.878;15.914;2022-08-16T03:22:10;5.22;;;1.92;;
39848;SDS011;25518;47.878;15.914;2022-08-16T03:24:36;3.00;;;2.00;;
39848;SDS011;25518;47.878;15.914;2022-08-16T03:27:03;3.28;;;1.90;;
39848;SDS011;25518;47.878;15.914;2022-08-16T03:29:31;3.80;;;1.80;;
39848;SDS011;25518;47.878;15.914;2022-08-16T03:31:58;3.95;;;1.70;;
39848;SDS011;25518;47.878;15.914;2022-08-16T03:34:25;3.50;;;1.80;;
39848;SDS011;25518;47.878;15.914;2022-08-16T03:36:52;2.95;;;1.80;;
39848;SDS011;25518;47.878;15.914;2022-08-16T03:39:18;3.00;;;1.98;;
39848;SDS011;25518;47.878;15.914;2022-08-16T03:41:44;2.60;;;1.65;;
39848;SDS011;25518;47.878;15.914;2022-08-16T03:44:10;3.03;;;1.70;;
39848;SDS011;25518;47.878;15.914;2022-08-16T03:46:37;3.83;;;1.83;;
39848;SDS011;25518;47.878;15.914;2022-08-16T03:49:04;2.63;;;1.58;;
39848;SDS011;25518;47.878;15.914;2022-08-16T03:51:34;3.07;;;1.70;;
39848;SDS011;25518;47.878;15.914;2022-08-16T03:54:01;3.03;;;1.60;;
39848;SDS011;25518;47.878;15.914;2022-08-16T03:56:28;2.77;;;1.60;;
39848;SDS011;25518;47.878;15.914;2022-08-16T03:58:54;3.15;;;1.85;;
39848;SDS011;25518;47.878;15.914;2022-08-16T04:01:21;3.78;;;1.80;;
39848;SDS011;25518;47.878;15.914;2022-08-16T04:03:47;2.95;;;1.55;;
39848;SDS011;25518;47.878;15.914;2022-08-16T04:06:14;3.20;;;1.60;;
39848;SDS011;25518;47.878;15.914;2022-08-16T04:08:41;3.50;;;1.70;;
39848;SDS011;25518;47.878;15.914;2022-08-16T04:11:07;3.60;;;1.92;;
39848;SDS011;25518;47.878;15.914;2022-08-16T04:13:33;3.53;;;1.73;;
39848;SDS011;25518;47.878;15.914;2022-08-16T04:16:00;2.83;;;1.98;;
39848;SDS011;25518;47.878;15.914;2022-08-16T04:18:27;2.50;;;1.40;;
39848;SDS011;25518;47.878;15.914;2022-08-16T04:20:55;2.90;;;1.67;;
39848;SDS011;25518;47.878;15.914;2022-08-16T04:23:21;2.50;;;1.55;;
39848;SDS011;25518;47.878;15.914;2022-08-16T04:25:48;2.90;;;1.60;;
39848;SDS011;25518;47.878;15.914;2022-08-16T04:28:15;3.35;;;1.50;;
39848;SDS011;25518;47.878;15.914;2022-08-16T04:30:41;2.47;;;1.33;;
39848;SDS011;25518;47.878;15.914;2022-08-16T04:33:07;3.00;;;1.65;;
39848;SDS011;25518;47.878;15.914;2022-08-16T04:35:34;3.53;;;1.77;;
39848;SDS011;25518;47.878;15.914;2022-08-16T04:38:00;2.93;;;1.53;;
39848;SDS011;25518;47.878;15.914;2022-08-16T04:40:27;2.87;;;1.57;;
39848;SDS011;25518;47.878;15.914;2022-08-16T04:42:53;2.53;;;1.50;;
39848;SDS011;25518;47.878;15.914;2022-08-16T04:45:19;2.95;;;1.65;;
39848;SDS011;25518;47.878;15.914;2022-08-16T04:47:46;2.93;;;1.33;;
39848;SDS011;25518;47.878;15.914;2022-08-16T04:50:15;3.45;;;1.48;;
39848;SDS011;25518;47.878;15.914;2022-08-16T04:52:44;2.78;;;1.52;;
39848;SDS011;25518;47.878;15.914;2022-08-16T04:55:12;4.45;;;1.60;;
39848;SDS011;25518;47.878;15.914;2022-08-16T04:57:39;2.67;;;1.73;;
39848;SDS011;25518;47.878;15.914;2022-08-16T05:00:06;3.25;;;1.70;;
39848;SDS011;25518;47.878;15.914;2022-08-16T05:02:34;3.05;;;1.67;;
39848;SDS011;25518;47.878;15.914;2022-08-16T05:05:00;2.40;;;1.40;;
39848;SDS011;25518;47.878;15.914;2022-08-16T05:07:26;2.20;;;1.38;;
39848;SDS011;25518;47.878;15.914;2022-08-16T05:09:53;2.80;;;1.67;;
39848;SDS011;25518;47.878;15.914;2022-08-16T05:12:19;3.40;;;1.42;;
39848;SDS011;25518;47.878;15.914;2022-08-16T05:14:45;2.92;;;1.50;;
39848;SDS011;25518;47.878;15.914;2022-08-16T05:17:11;3.40;;;1.50;;
39848;SDS011;25518;47.878;15.914;2022-08-16T05:19:38;3.38;;;1.60;;
39848;SDS011;25518;47.878;15.914;2022-08-16T05:22:04;3.20;;;1.60;;
39848;SDS011;25518;47.878;15.914;2022-08-16T05:24:30;2.70;;;1.30;;
39848;SDS011;25518;47.878;15.914;2022-08-16T05:26:56;2.50;;;1.20;;
39848;SDS011;25518;47.878;15.914;2022-08-16T05:29:23;2.13;;;1.30;;
39848;SDS011;25518;47.878;15.914;2022-08-16T05:31:49;1.83;;;1.10;;
39848;SDS011;25518;47.878;15.914;2022-08-16T05:34:15;2.57;;;1.30;;
39848;SDS011;25518;47.878;15.914;2022-08-16T05:36:46;2.55;;;1.30;;
39848;SDS011;25518;47.878;15.914;2022-08-16T05:39:13;2.30;;;1.30;;
39848;SDS011;25518;47.878;15.914;2022-08-16T05:41:40;3.30;;;1.40;;
39848;SDS011;25518;47.878;15.914;2022-08-16T05:44:06;3.13;;;1.52;;
39848;SDS011;25518;47.878;15.914;2022-08-16T05:46:32;1.65;;;1.08;;
39848;SDS011;25518;47.878;15.914;2022-08-16T05:48:59;2.55;;;1.30;;
39848;SDS011;25518;47.878;15.914;2022-08-16T05:51:25;2.53;;;1.60;;
39848;SDS011;25518;47.878;15.914;2022-08-16T05:53:51;1.90;;;1.10;;
39848;SDS011;25518;47.878;15.914;2022-08-16T05:56:18;4.20;;;1.30;;
39848;SDS011;25518;47.878;15.914;2022-08-16T05:58:44;2.60;;;1.25;;
39848;SDS011;25518;47.878;15.914;2022-08-16T06:01:10;2.08;;;1.30;;
39848;SDS011;25518;47.878;15.914;2022-08-16T06:03:36;3.20;;;1.35;;
39848;SDS011;25518;47.878;15.914;2022-08-16T06:06:02;1.60;;;1.00;;
39848;SDS011;25518;47.878;15.914;2022-08-16T06:08:29;3.08;;;1.35;;
39848;SDS011;25518;47.878;15.914;2022-08-16T06:10:55;3.85;;;1.30;;
39848;SDS011;25518;47.878;15.914;2022-08-16T06:13:21;2.40;;;1.17;;
39848;SDS011;25518;47.878;15.914;2022-08-16T06:15:48;3.08;;;1.55;;
39848;SDS011;25518;47.878;15.914;2022-08-16T06:18:16;2.45;;;1.30;;
39848;SDS011;25518;47.878;15.914;2022-08-16T06:20:43;2.80;;;1.17;;
39848;SDS011;25518;47.878;15.914;2022-08-16T06:23:09;3.65;;;1.55;;
39848;SDS011;25518;47.878;15.914;2022-08-16T06:25:36;3.63;;;1.60;;
39848;SDS011;25518;47.878;15.914;2022-08-16T06:28:02;2.45;;;1.10;;
39848;SDS011;25518;47.878;15.914;2022-08-16T06:30:29;2.35;;;1.30;;
39848;SDS011;25518;47.878;15.914;2022-08-16T06:32:56;2.83;;;1.20;;
39848;SDS011;25518;47.878;15.914;2022-08-16T06:35:23;2.22;;;1.10;;
39848;SDS011;25518;47.878;15.914;2022-08-16T06:37:50;3.03;;;1.40;;
39848;SDS011;25518;47.878;15.914;2022-08-16T06:40:16;2.28;;;1.20;;
39848;SDS011;25518;47.878;15.914;2022-08-16T06:42:42;2.55;;;1.10;;
39848;SDS011;25518;47.878;15.914;2022-08-16T06:45:09;2.20;;;1.30;;
39848;SDS011;25518;47.878;15.914;2022-08-16T06:47:35;3.15;;;1.40;;
39848;SDS011;25518;47.878;15.914;2022-08-16T06:50:01;2.22;;;1.15;;
39848;SDS011;25518;47.878;15.914;2022-08-16T06:52:28;2.60;;;1.10;;
39848;SDS011;25518;47.878;15.914;2022-08-16T06:54:57;2.33;;;1.20;;
39848;SDS011;25518;47.878;15.914;2022-08-16T06:57:23;2.22;;;1.15;;
39848;SDS011;25518;47.878;15.914;2022-08-16T06:59:49;2.40;;;1.20;;
39848;SDS011;25518;47.878;15.914;2022-08-16T07:02:15;2.60;;;1.40;;
39848;SDS011;25518;47.878;15.914;2022-08-16T07:04:43;2.83;;;1.15;;
39848;SDS011;25518;47.878;15.914;2022-08-16T07:07:09;2.92;;;1.30;;
39848;SDS011;25518;47.878;15.914;2022-08-16T07:09:35;2.70;;;1.30;;
39848;SDS011;25518;47.878;15.914;2022-08-16T07:12:02;2.45;;;1.20;;
39848;SDS011;25518;47.878;15.914;2022-08-16T07:14:28;3.60;;;1.30;;
39848;SDS011;25518;47.878;15.914;2022-08-16T07:16:55;2.42;;;1.23;;
39848;SDS011;25518;47.878;15.914;2022-08-16T07:19:21;3.83;;;1.50;;
39848;SDS011;25518;47.878;15.914;2022-08-16T07:21:48;3.42;;;1.50;;
39848;SDS011;25518;47.878;15.914;2022-08-16T07:24:15;2.53;;;1.27;;
39848;SDS011;25518;47.878;15.914;2022-08-16T07:26:42;2.23;;;1.20;;
39848;SDS011;25518;47.878;15.914;2022-08-16T07:29:08;2.35;;;1.38;;
39848;SDS011;25518;47.878;15.914;2022-08-16T07:31:34;3.05;;;1.40;;
39848;SDS011;25518;47.878;15.914;2022-08-16T07:34:01;2.40;;;1.27;;
39848;SDS011;25518;47.878;15.914;2022-08-16T07:36:27;3.45;;;1.60;;
39848;SDS011;25518;47.878;15.914;2022-08-16T07:38:53;3.78;;;1.48;;
39848;SDS011;25518;47.878;15.914;2022-08-16T07:41:19;2.40;;;1.25;;
39848;SDS011;25518;47.878;15.914;2022-08-16T07:43:46;2.65;;;1.63;;
39848;SDS011;25518;47.878;15.914;2022-08-16T07:46:13;3.30;;;1.30;;
39848;SDS011;25518;47.878;15.914;2022-08-16T07:48:39;2.40;;;1.10;;
39848;SDS011;25518;47.878;15.914;2022-08-16T07:51:05;3.35;;;1.48;;
39848;SDS011;25518;47.878;15.914;2022-08-16T07:53:32;2.83;;;1.40;;
39848;SDS011;25518;47.878;15.914;2022-08-16T07:55:59;2.00;;;1.20;;
39848;SDS011;25518;47.878;15.914;2022-08-16T07:58:26;3.60;;;1.27;;
39848;SDS011;25518;47.878;15.914;2022-08-16T08:00:53;2.80;;;1.40;;
39848;SDS011;25518;47.878;15.914;2022-08-16T08:03:20;2.65;;;1.10;;
39848;SDS011;25518;47.878;15.914;2022-08-16T08:05:46;2.30;;;1.38;;
39848;SDS011;25518;47.878;15.914;2022-08-16T08:08:12;2.25;;;1.35;;
39848;SDS011;25518;47.878;15.914;2022-08-16T08:10:39;2.88;;;1.30;;
39848;SDS011;25518;47.878;15.914;2022-08-16T08:13:05;2.47;;;1.40;;
39848;SDS011;25518;47.878;15.914;2022-08-16T08:15:32;2.70;;;1.23;;
39848;SDS011;25518;47.878;15.914;2022-08-16T08:17:58;3.00;;;1.40;;
39848;SDS011;25518;47.878;15.914;2022-08-16T08:20:25;3.45;;;1.50;;
39848;SDS011;25518;47.878;15.914;2022-08-16T08:22:52;2.30;;;1.27;;
39848;SDS011;25518;47.878;15.914;2022-08-16T08:25:19;3.97;;;1.20;;
39848;SDS011;25518;47.878;15.914;2022-08-16T08:27:45;3.10;;;1.30;;
39848;SDS011;25518;47.878;15.914;2022-08-16T08:30:12;3.03;;;1.40;;
39848;SDS011;25518;47.878;15.914;2022-08-16T08:32:39;3.08;;;1.30;;
39848;SDS011;25518;47.878;15.914;2022-08-16T08:35:06;2.13;;;1.40;;
39848;SDS011;25518;47.878;15.914;2022-08-16T08:37:33;2.17;;;1.27;;
39848;SDS011;25518;47.878;15.914;2022-08-16T08:40:00;2.92;;;1.20;;
39848;SDS011;25518;47.878;15.914;2022-08-16T08:42:27;1.73;;;1.10;;
39848;SDS011;25518;47.878;15.914;2022-08-16T08:44:53;2.08;;;1.30;;
39848;SDS011;25518;47.878;15.914;2022-08-16T08:47:20;2.78;;;1.52;;
39848;SDS011;25518;47.878;15.914;2022-08-16T08:49:47;2.97;;;1.35;;
39848;SDS011;25518;47.878;15.914;2022-08-16T08:52:13;4.65;;;1.40;;
39848;SDS011;25518;47.878;15.914;2022-08-16T08:54:39;2.45;;;1.38;;
39848;SDS011;25518;47.878;15.914;2022-08-16T08:57:06;3.17;;;1.20;;
39848;SDS011;25518;47.878;15.914;2022-08-16T08:59:33;2.67;;;1.35;;
39848;SDS011;25518;47.878;15.914;2022-08-16T09:01:59;2.25;;;1.35;;
39848;SDS011;25518;47.878;15.914;2022-08-16T09:04:26;2.42;;;1.30;;
39848;SDS011;25518;47.878;15.914;2022-08-16T09:06:53;2.33;;;1.38;;
39848;SDS011;25518;47.878;15.914;2022-08-16T09:09:19;3.05;;;1.30;;
39848;SDS011;25518;47.878;15.914;2022-08-16T09:11:46;3.08;;;1.45;;
39848;SDS011;25518;47.878;15.914;2022-08-16T09:14:12;2.35;;;1.40;;
39848;SDS011;25518;47.878;15.914;2022-08-16T09:16:38;2.50;;;1.40;;
39848;SDS011;25518;47.878;15.914;2022-08-16T09:19:05;3.90;;;1.80;;
39848;SDS011;25518;47.878;15.914;2022-08-16T09:21:31;2.47;;;1.40;;
39848;SDS011;25518;47.878;15.914;2022-08-16T09:23:57;3.30;;;1.10;;
39848;SDS011;25518;47.878;15.914;2022-08-16T09:26:23;2.88;;;1.40;;
39848;SDS011;25518;47.878;15.914;2022-08-16T09:28:49;2.33;;;1.42;;
39848;SDS011;25518;47.878;15.914;2022-08-16T09:31:16;2.95;;;1.50;;
39848;SDS011;25518;47.878;15.914;2022-08-16T09:33:43;2.30;;;1.23;;
39848;SDS011;25518;47.878;15.914;2022-08-16T09:36:09;2.90;;;1.52;;
39848;SDS011;25518;47.878;15.914;2022-08-16T09:38:36;3.15;;;1.58;;
39848;SDS011;25518;47.878;15.914;2022-08-16T09:41:04;2.30;;;1.15;;
39848;SDS011;25518;47.878;15.914;2022-08-16T09:43:32;3.45;;;1.33;;
39848;SDS011;25518;47.878;15.914;2022-08-16T09:45:58;1.73;;;1.10;;
39848;SDS011;25518;47.878;15.914;2022-08-16T09:48:25;2.95;;;1.45;;
39848;SDS011;25518;47.878;15.914;2022-08-16T09:50:52;2.65;;;1.40;;
39848;SDS011;25518;47.878;15.914;2022-08-16T09:53:20;2.28;;;1.35;;
39848;SDS011;25518;47.878;15.914;2022-08-16T09:55:49;2.50;;;1.53;;
39848;SDS011;25518;47.878;15.914;2022-08-16T09:58:18;2.05;;;1.30;;
39848;SDS011;25518;47.878;15.914;2022-08-16T10:00:44;2.50;;;1.27;;
39848;SDS011;25518;47.878;15.914;2022-08-16T10:03:13;2.50;;;1.40;;
39848;SDS011;25518;47.878;15.914;2022-08-16T10:05:39;2.60;;;1.20;;
39848;SDS011;25518;47.878;15.914;2022-08-16T10:08:05;3.13;;;1.45;;
39848;SDS011;25518;47.878;15.914;2022-08-16T10:10:32;2.30;;;1.40;;
39848;SDS011;25518;47.878;15.914;2022-08-16T10:13:00;3.28;;;1.30;;
39848;SDS011;25518;47.878;15.914;2022-08-16T10:15:44;2.83;;;1.40;;
39848;SDS011;25518;47.878;15.914;2022-08-16T10:18:11;2.45;;;1.40;;
39848;SDS011;25518;47.878;15.914;2022-08-16T10:20:39;2.28;;;1.25;;
39848;SDS011;25518;47.878;15.914;2022-08-16T10:23:07;2.40;;;1.20;;
39848;SDS011;25518;47.878;15.914;2022-08-16T10:25:35;2.83;;;1.45;;
39848;SDS011;25518;47.878;15.914;2022-08-16T10:28:02;2.70;;;1.40;;
39848;SDS011;25518;47.878;15.914;2022-08-16T10:30:28;3.03;;;1.60;;
39848;SDS011;25518;47.878;15.914;2022-08-16T10:32:55;2.60;;;1.30;;
39848;SDS011;25518;47.878;15.914;2022-08-16T10:35:21;2.60;;;1.35;;
39848;SDS011;25518;47.878;15.914;2022-08-16T10:37:47;2.80;;;1.57;;
39848;SDS011;25518;47.878;15.914;2022-08-16T10:40:14;2.50;;;1.50;;
39848;SDS011;25518;47.878;15.914;2022-08-16T10:42:40;2.80;;;1.50;;
39848;SDS011;25518;47.878;15.914;2022-08-16T10:45:07;2.10;;;1.30;;
39848;SDS011;25518;47.878;15.914;2022-08-16T10:47:33;2.97;;;1.67;;
39848;SDS011;25518;47.878;15.914;2022-08-16T10:50:00;2.90;;;1.60;;
39848;SDS011;25518;47.878;15.914;2022-08-16T10:52:26;2.42;;;1.42;;
39848;SDS011;25518;47.878;15.914;2022-08-16T10:54:53;2.60;;;1.35;;
39848;SDS011;25518;47.878;15.914;2022-08-16T10:57:19;3.07;;;1.40;;
39848;SDS011;25518;47.878;15.914;2022-08-16T10:59:46;3.33;;;1.38;;
39848;SDS011;25518;47.878;15.914;2022-08-16T11:02:12;4.03;;;1.40;;
39848;SDS011;25518;47.878;15.914;2022-08-16T11:04:38;3.13;;;1.50;;
39848;SDS011;25518;47.878;15.914;2022-08-16T11:07:05;3.38;;;1.60;;
39848;SDS011;25518;47.878;15.914;2022-08-16T11:09:32;3.38;;;1.52;;
39848;SDS011;25518;47.878;15.914;2022-08-16T11:11:58;4.55;;;2.55;;
39848;SDS011;25518;47.878;15.914;2022-08-16T11:14:24;3.33;;;1.67;;
39848;SDS011;25518;47.878;15.914;2022-08-16T11:16:51;2.55;;;1.50;;
39848;SDS011;25518;47.878;15.914;2022-08-16T11:19:17;3.58;;;1.40;;
39848;SDS011;25518;47.878;15.914;2022-08-16T11:21:43;3.20;;;1.52;;
39848;SDS011;25518;47.878;15.914;2022-08-16T11:24:10;3.22;;;1.40;;
39848;SDS011;25518;47.878;15.914;2022-08-16T11:26:38;2.88;;;1.50;;
39848;SDS011;25518;47.878;15.914;2022-08-16T11:29:04;2.45;;;1.50;;
39848;SDS011;25518;47.878;15.914;2022-08-16T11:31:31;3.55;;;2.03;;
39848;SDS011;25518;47.878;15.914;2022-08-16T11:33:58;3.40;;;1.50;;
39848;SDS011;25518;47.878;15.914;2022-08-16T11:36:24;3.38;;;1.40;;
39848;SDS011;25518;47.878;15.914;2022-08-16T11:38:51;3.78;;;1.70;;
39848;SDS011;25518;47.878;15.914;2022-08-16T11:41:17;3.07;;;1.47;;
39848;SDS011;25518;47.878;15.914;2022-08-16T11:43:43;2.63;;;1.30;;
39848;SDS011;25518;47.878;15.914;2022-08-16T11:46:11;4.32;;;1.67;;
39848;SDS011;25518;47.878;15.914;2022-08-16T11:48:38;2.92;;;1.45;;
39848;SDS011;25518;47.878;15.914;2022-08-16T11:51:04;2.58;;;1.40;;
39848;SDS011;25518;47.878;15.914;2022-08-16T11:53:31;3.53;;;1.70;;
39848;SDS011;25518;47.878;15.914;2022-08-16T11:55:58;3.50;;;1.40;;
39848;SDS011;25518;47.878;15.914;2022-08-16T11:58:26;2.53;;;1.55;;
39848;SDS011;25518;47.878;15.914;2022-08-16T12:00:53;2.93;;;1.67;;
39848;SDS011;25518;47.878;15.914;2022-08-16T12:03:22;2.47;;;1.48;;
39848;SDS011;25518;47.878;15.914;2022-08-16T12:05:49;3.17;;;1.40;;
39848;SDS011;25518;47.878;15.914;2022-08-16T12:08:15;2.50;;;1.40;;
39848;SDS011;25518;47.878;15.914;2022-08-16T12:10:42;2.28;;;1.20;;
39848;SDS011;25518;47.878;15.914;2022-08-16T12:13:10;4.68;;;1.60;;
39848;SDS011;25518;47.878;15.914;2022-08-16T12:15:37;2.92;;;1.30;;
39848;SDS011;25518;47.878;15.914;2022-08-16T12:18:04;2.63;;;1.40;;
39848;SDS011;25518;47.878;15.914;2022-08-16T12:20:33;3.08;;;1.45;;
39848;SDS011;25518;47.878;15.914;2022-08-16T12:23:00;3.13;;;1.60;;
39848;SDS011;25518;47.878;15.914;2022-08-16T12:25:28;3.60;;;1.60;;
39848;SDS011;25518;47.878;15.914;2022-08-16T12:27:55;2.87;;;1.67;;
39848;SDS011;25518;47.878;15.914;2022-08-16T12:30:28;4.18;;;1.60;;
39848;SDS011;25518;47.878;15.914;2022-08-16T12:32:55;3.65;;;1.70;;
39848;SDS011;25518;47.878;15.914;2022-08-16T12:35:22;2.42;;;1.52;;
39848;SDS011;25518;47.878;15.914;2022-08-16T12:37:48;3.23;;;1.60;;
39848;SDS011;25518;47.878;15.914;2022-08-16T12:40:21;3.17;;;1.55;;
39848;SDS011;25518;47.878;15.914;2022-08-16T12:42:48;3.40;;;1.70;;
39848;SDS011;25518;47.878;15.914;2022-08-16T12:45:15;3.25;;;1.67;;
39848;SDS011;25518;47.878;15.914;2022-08-16T12:47:42;3.88;;;1.92;;
39848;SDS011;25518;47.878;15.914;2022-08-16T12:50:28;2.75;;;1.63;;
39848;SDS011;25518;47.878;15.914;2022-08-16T12:52:54;2.85;;;1.50;;
39848;SDS011;25518;47.878;15.914;2022-08-16T12:55:21;3.50;;;1.80;;
39848;SDS011;25518;47.878;15.914;2022-08-16T12:57:49;2.60;;;1.73;;
39848;SDS011;25518;47.878;15.914;2022-08-16T13:00:16;4.10;;;1.95;;
39848;SDS011;25518;47.878;15.914;2022-08-16T13:02:43;2.67;;;1.70;;
39848;SDS011;25518;47.878;15.914;2022-08-16T13:05:10;3.63;;;1.60;;
39848;SDS011;25518;47.878;15.914;2022-08-16T13:07:37;2.50;;;1.63;;
39848;SDS011;25518;47.878;15.914;2022-08-16T13:10:04;2.97;;;1.80;;
39848;SDS011;25518;47.878;15.914;2022-08-16T13:12:39;3.70;;;1.85;;
39848;SDS011;25518;47.878;15.914;2022-08-16T13:15:07;2.50;;;1.52;;
39848;SDS011;25518;47.878;15.914;2022-08-16T13:17:35;2.73;;;1.70;;
39848;SDS011;25518;47.878;15.914;2022-08-16T13:20:03;3.50;;;1.73;;
39848;SDS011;25518;47.878;15.914;2022-08-16T13:22:31;3.05;;;1.60;;
39848;SDS011;25518;47.878;15.914;2022-08-16T13:24:57;2.35;;;1.63;;
39848;SDS011;25518;47.878;15.914;2022-08-16T13:27:24;2.03;;;1.40;;
39848;SDS011;25518;47.878;15.914;2022-08-16T13:29:50;2.47;;;1.60;;
39848;SDS011;25518;47.878;15.914;2022-08-16T13:32:16;3.80;;;1.80;;
39848;SDS011;25518;47.878;15.914;2022-08-16T13:34:42;3.10;;;1.80;;
39848;SDS011;25518;47.878;15.914;2022-08-16T13:37:09;3.30;;;1.80;;
39848;SDS011;25518;47.878;15.914;2022-08-16T13:39:35;3.17;;;1.60;;
39848;SDS011;25518;47.878;15.914;2022-08-16T13:42:02;2.50;;;1.70;;
39848;SDS011;25518;47.878;15.914;2022-08-16T13:44:28;2.92;;;1.80;;
39848;SDS011;25518;47.878;15.914;2022-08-16T13:46:56;2.83;;;1.65;;
39848;SDS011;25518;47.878;15.914;2022-08-16T13:49:23;3.90;;;1.95;;
39848;SDS011;25518;47.878;15.914;2022-08-16T13:51:49;4.30;;;2.17;;
39848;SDS011;25518;47.878;15.914;2022-08-16T13:54:15;4.13;;;1.80;;
39848;SDS011;25518;47.878;15.914;2022-08-16T13:56:42;2.97;;;1.70;;
39848;SDS011;25518;47.878;15.914;2022-08-16T13:59:09;3.10;;;1.98;;
39848;SDS011;25518;47.878;15.914;2022-08-16T14:01:37;3.42;;;1.80;;
39848;SDS011;25518;47.878;15.914;2022-08-16T14:04:04;3.28;;;1.85;;
39848;SDS011;25518;47.878;15.914;2022-08-16T14:06:30;3.47;;;2.08;;
39848;SDS011;25518;47.878;15.914;2022-08-16T14:08:56;4.97;;;1.88;;
39848;SDS011;25518;47.878;15.914;2022-08-16T14:11:23;2.77;;;1.57;;
39848;SDS011;25518;47.878;15.914;2022-08-16T14:13:49;2.80;;;1.60;;
39848;SDS011;25518;47.878;15.914;2022-08-16T14:16:15;2.63;;;1.60;;
39848;SDS011;25518;47.878;15.914;2022-08-16T14:18:41;3.03;;;1.80;;
39848;SDS011;25518;47.878;15.914;2022-08-16T14:21:08;4.10;;;1.77;;
39848;SDS011;25518;47.878;15.914;2022-08-16T14:23:34;3.40;;;1.83;;
39848;SDS011;25518;47.878;15.914;2022-08-16T14:26:00;3.85;;;1.90;;
39848;SDS011;25518;47.878;15.914;2022-08-16T14:28:26;3.28;;;2.08;;
39848;SDS011;25518;47.878;15.914;2022-08-16T14:30:53;2.90;;;1.90;;
39848;SDS011;25518;47.878;15.914;2022-08-16T14:33:19;2.67;;;1.85;;
39848;SDS011;25518;47.878;15.914;2022-08-16T14:35:45;3.17;;;1.70;;
39848;SDS011;25518;47.878;15.914;2022-08-16T14:38:12;3.28;;;1.77;;
39848;SDS011;25518;47.878;15.914;2022-08-16T14:40:38;3.17;;;1.90;;
39848;SDS011;25518;47.878;15.914;2022-08-16T14:43:06;3.17;;;1.85;;
39848;SDS011;25518;47.878;15.914;2022-08-16T14:45:33;4.15;;;2.10;;
39848;SDS011;25518;47.878;15.914;2022-08-16T14:47:59;4.63;;;2.20;;
39848;SDS011;25518;47.878;15.914;2022-08-16T14:50:25;4.60;;;1.90;;